createdAt,value
2018-09-08T08:32:22.713Z,0
2018-09-08T08:32:30.363Z,1.2
2018-09-08T08:32:38.047Z,1.2
2018-09-08T08:32:45.785Z,1.2
2018-09-08T08:32:53.508Z,1.2
2018-09-08T08:33:01.293Z,1.3
2018-09-08T08:33:08.977Z,1.2
2018-09-08T08:35:30.034Z,0
2018-09-08T08:35:37.800Z,3.8
2018-09-08T08:35:45.589Z,4
2018-09-08T08:35:53.376Z,4
2018-09-08T08:36:01.144Z,4
2018-09-08T08:36:08.910Z,3.9
2018-09-08T08:36:16.653Z,4
2018-09-08T08:36:24.401Z,3.9
2018-09-08T08:36:32.128Z,3.7
2018-09-08T08:36:39.935Z,3.7
2018-09-08T08:36:48.223Z,3.5
2018-09-08T08:36:55.986Z,3.6
2018-09-08T08:37:03.819Z,3.7
2018-09-08T08:37:11.549Z,3.6
2018-09-08T08:37:19.338Z,3.8
2018-09-08T08:37:27.031Z,3.8
2018-09-08T08:37:34.776Z,3.9
2018-09-08T08:37:42.563Z,3.9
2018-09-08T08:37:50.341Z,3.8
2018-09-08T08:37:58.085Z,3.7
2018-09-08T08:38:05.829Z,3.6
2018-09-08T08:38:13.524Z,3.9
2018-09-08T08:38:21.200Z,4
2018-09-08T08:38:28.885Z,7.6
2018-09-08T08:38:36.575Z,7.9
2018-09-08T08:38:44.249Z,8.4
2018-09-08T08:38:51.921Z,8.3
2018-09-08T08:38:59.589Z,5.8
2018-09-08T08:39:07.246Z,6.9
2018-09-08T08:39:14.946Z,7.3
2018-09-08T08:39:22.702Z,7.5
2018-09-08T08:39:30.427Z,8.3
2018-09-08T08:39:38.163Z,6.5
2018-09-08T08:39:45.887Z,5.9
2018-09-08T08:39:53.609Z,5.6
2018-09-08T08:40:01.319Z,4.2
2018-09-08T08:40:08.976Z,4.2
2018-09-08T08:40:16.792Z,4.4
2018-09-08T08:40:24.623Z,4.4
2018-09-08T08:40:32.460Z,4.8
2018-09-08T08:40:40.294Z,4.8
2018-09-08T08:40:48.176Z,4.9
2018-09-08T08:40:55.991Z,4.9
2018-09-08T08:41:03.863Z,4.5
2018-09-08T08:41:11.660Z,4.3
2018-09-08T08:41:19.493Z,4.1
2018-09-08T08:41:27.318Z,4.2
2018-09-08T08:41:35.188Z,4.3
2018-09-08T08:41:43.012Z,4.3
2018-09-08T08:41:50.852Z,4.7
2018-09-08T08:41:58.678Z,4.9
2018-09-08T08:42:06.702Z,5.1
2018-09-08T08:42:14.513Z,5.7
2018-09-08T08:42:23.379Z,5.9
2018-09-08T08:42:31.233Z,5.8
2018-09-08T08:42:41.789Z,5.6
2018-09-08T08:42:49.835Z,5.2
2018-09-08T08:42:57.662Z,5.1
2018-09-08T08:43:05.535Z,5.1
2018-09-08T08:43:13.380Z,5.2
2018-09-08T08:43:21.265Z,5.3
2018-09-08T08:43:29.003Z,5.4
2018-09-08T08:43:36.932Z,5.2
2018-09-08T08:43:44.765Z,5.3
2018-09-08T08:43:52.597Z,5
2018-09-08T08:44:00.431Z,4.8
2018-09-08T08:44:08.253Z,4.9
2018-09-08T08:44:16.069Z,4.7
2018-09-08T08:44:24.923Z,4.6
2018-09-08T08:44:32.779Z,4.4
2018-09-08T08:44:40.620Z,4.5
2018-09-08T08:44:49.447Z,4.7
2018-09-08T08:44:57.322Z,4.8
2018-09-08T08:45:05.164Z,5.1
2018-09-08T08:45:13.019Z,4.7
2018-09-08T08:45:20.860Z,4.5
2018-09-08T08:45:28.709Z,4.5
2018-09-08T08:45:36.562Z,4.3
2018-09-08T08:45:44.392Z,4.4
2018-09-08T08:45:52.202Z,4.5
2018-09-08T08:46:00.034Z,4.5
2018-09-08T08:46:07.853Z,4.6
2018-09-08T08:46:15.657Z,4.8
2018-09-08T08:46:23.476Z,4.8
2018-09-08T08:46:31.278Z,4.9
2018-09-08T08:46:39.123Z,4.9
2018-09-08T08:46:47.958Z,4.8
2018-09-08T08:46:55.768Z,4.6
2018-09-08T08:47:03.564Z,4.7
2018-09-08T08:47:11.371Z,4.6
2018-09-08T08:47:27.149Z,4.9
2018-09-08T08:47:34.927Z,5.2
2018-09-08T08:47:42.672Z,5.6
2018-09-08T08:47:50.439Z,5.7
2018-09-08T08:47:58.174Z,5.3
2018-09-08T08:48:05.934Z,5.1
2018-09-08T08:48:13.727Z,4.8
2018-09-08T08:48:21.492Z,4.5
2018-09-08T08:48:29.234Z,4.9
2018-09-08T08:48:37.055Z,5
2018-09-08T08:48:45.087Z,5.3
2018-09-08T08:48:52.917Z,5.5
2018-09-08T08:49:00.700Z,5.4
2018-09-08T08:49:08.519Z,5.3
2018-09-08T08:49:16.314Z,5.2
2018-09-08T08:49:24.124Z,5.2
2018-09-08T08:49:31.934Z,5.2
2018-09-08T08:49:39.788Z,5.2
2018-09-08T08:49:47.612Z,4.9
2018-09-08T08:49:55.309Z,4.8
2018-09-08T08:50:03.002Z,4.8
2018-09-08T08:50:10.776Z,4.9
2018-09-08T08:50:18.574Z,5.1
2018-09-08T08:50:26.335Z,5.1
2018-09-08T08:50:34.083Z,5.1
2018-09-08T08:50:41.851Z,5.2
2018-09-08T08:50:49.620Z,5.3
2018-09-08T08:50:57.366Z,5.6
2018-09-08T08:51:05.115Z,5.7
2018-09-08T08:51:12.916Z,5.8
2018-09-08T08:51:21.031Z,5.7
2018-09-08T08:51:28.811Z,5.5
2018-09-08T08:51:36.561Z,5.2
2018-09-08T08:51:44.333Z,5
2018-09-08T08:51:52.093Z,4.9
2018-09-08T08:51:59.869Z,5
2018-09-08T08:52:07.657Z,5.6
2018-09-08T08:52:15.512Z,5.7
2018-09-08T08:52:23.366Z,5.7
2018-09-08T08:52:31.145Z,5.8
2018-09-08T08:52:38.914Z,5.3
2018-09-08T08:52:46.677Z,5.2
2018-09-08T08:52:54.467Z,5
2018-09-08T08:53:02.239Z,4.8
2018-09-08T08:53:10.051Z,5.1
2018-09-08T08:53:17.813Z,4.9
2018-09-08T08:53:25.604Z,5.1
2018-09-08T08:53:33.361Z,4.9
2018-09-08T08:53:41.152Z,4.9
2018-09-08T08:53:48.901Z,4.9
2018-09-08T08:53:56.761Z,4.6
2018-09-08T08:54:04.576Z,4.6
2018-09-08T08:54:12.361Z,4.6
2018-09-08T08:54:20.193Z,5
2018-09-08T08:54:27.989Z,5
2018-09-08T08:54:35.739Z,4.9
2018-09-08T08:54:43.557Z,4.1
2018-09-08T08:54:51.334Z,3.9
2018-09-08T08:54:59.137Z,3.6
2018-09-08T08:55:06.914Z,3.9
2018-09-08T08:55:14.710Z,4.6
2018-09-08T08:55:22.472Z,4.9
2018-09-08T08:55:30.275Z,5.4
2018-09-08T08:55:38.127Z,5.5
2018-09-08T08:55:45.945Z,5.3
2018-09-08T08:55:53.752Z,5.2
2018-09-08T08:56:01.421Z,5
2018-09-08T08:56:09.158Z,5
2018-09-08T08:56:16.929Z,5.3
2018-09-08T08:56:24.700Z,5.4
2018-09-08T08:56:32.455Z,5.4
2018-09-08T08:56:40.196Z,5.3
2018-09-08T08:56:47.959Z,5.3
2018-09-08T08:56:55.756Z,5.4
2018-09-08T08:57:03.547Z,5.6
2018-09-08T08:57:11.312Z,5.6
2018-09-08T08:57:19.118Z,5.3
2018-09-08T08:57:26.911Z,5.2
2018-09-08T08:57:34.714Z,5.2
2018-09-08T08:57:42.494Z,5.2
2018-09-08T08:57:50.314Z,5.2
2018-09-08T08:57:58.150Z,5.1
2018-09-08T08:58:05.915Z,5
2018-09-08T08:58:13.716Z,5.1
2018-09-08T08:58:21.517Z,5.1
2018-09-08T08:58:29.379Z,5.6
2018-09-08T08:58:37.235Z,5.7
2018-09-08T08:58:45.062Z,5.4
2018-09-08T08:58:52.926Z,5.3
2018-09-08T08:59:00.667Z,4.4
2018-09-08T08:59:08.480Z,4.3
2018-09-08T08:59:16.281Z,4.2
2018-09-08T08:59:25.030Z,3.9
2018-09-08T08:59:32.806Z,3.9
2018-09-08T08:59:40.606Z,3.9
2018-09-08T08:59:48.366Z,4.5
2018-09-08T08:59:56.197Z,5.1
2018-09-08T09:00:03.984Z,5
2018-09-08T09:00:11.765Z,5
2018-09-08T09:00:19.561Z,5
2018-09-08T09:00:27.343Z,4.8
2018-09-08T09:00:35.148Z,4.9
2018-09-08T09:00:43.314Z,5.2
2018-09-08T09:00:51.058Z,5.2
2018-09-08T09:00:58.827Z,4.8
2018-09-08T09:01:06.573Z,4.7
2018-09-08T09:01:14.352Z,4.3
2018-09-08T09:01:22.119Z,4.3
2018-09-08T09:01:29.867Z,4.2
2018-09-08T09:01:37.658Z,4.2
2018-09-08T09:01:45.425Z,4.3
2018-09-08T09:01:53.222Z,4.1
2018-09-08T09:02:01.009Z,4.2
2018-09-08T09:02:08.793Z,4.3
2018-09-08T09:02:16.598Z,17.6
2018-09-08T09:02:24.374Z,18.1
2018-09-08T09:02:32.200Z,18.6
2018-09-08T09:02:39.986Z,20.799999
2018-09-08T09:02:47.793Z,7.4
2018-09-08T09:02:55.582Z,7.3
2018-09-08T09:03:03.367Z,4.6
2018-09-08T09:03:11.129Z,4.6
2018-09-08T09:03:18.877Z,4.5
2018-09-08T09:03:26.669Z,4.6
2018-09-08T09:03:34.458Z,5.3
2018-09-08T09:03:42.240Z,5.9
2018-09-08T09:03:50.037Z,6.2
2018-09-08T09:03:57.852Z,6.2
2018-09-08T09:04:05.605Z,5.4
2018-09-08T09:04:13.396Z,4.8
2018-09-08T09:04:21.150Z,4.6
2018-09-08T09:04:28.913Z,4.4
2018-09-08T09:04:36.673Z,4.3
2018-09-08T09:04:44.420Z,4.2
2018-09-08T09:04:52.200Z,4.3
2018-09-08T09:05:00.001Z,4.5
2018-09-08T09:05:07.800Z,4.6
2018-09-08T09:05:15.578Z,4.7
2018-09-08T09:05:23.362Z,5
2018-09-08T09:05:31.138Z,5
2018-09-08T09:05:38.960Z,5.4
2018-09-08T09:05:46.728Z,5.4
2018-09-08T09:05:54.488Z,5.4
2018-09-08T09:06:02.256Z,5.2
2018-09-08T09:06:10.055Z,5.3
2018-09-08T09:06:17.832Z,5.5
2018-09-08T09:06:25.571Z,5.4
2018-09-08T09:06:33.335Z,5.3
2018-09-08T09:06:41.144Z,5.2
2018-09-08T09:06:49.011Z,5.1
2018-09-08T09:06:57.358Z,5.2
2018-09-08T09:07:04.909Z,5.3
2018-09-08T09:07:12.739Z,5.7
2018-09-08T09:07:19.857Z,6
2018-09-08T09:07:27.575Z,6.2
2018-09-08T09:07:35.502Z,6.6
2018-09-08T09:07:43.212Z,6.5
2018-09-08T09:07:51.082Z,6.6
2018-09-08T09:07:59.860Z,6.9
2018-09-08T09:08:07.647Z,7.5
2018-09-08T09:08:15.937Z,7.8
2018-09-08T09:08:23.668Z,8.1
2018-09-08T09:08:31.856Z,9.4
2018-09-08T09:08:39.563Z,9.2
2018-09-08T09:08:47.258Z,9.8
2018-09-08T09:08:54.632Z,10.2
2018-09-08T09:09:02.419Z,7.9
2018-09-08T09:09:10.238Z,7.5
2018-09-08T09:09:18.001Z,7
2018-09-08T09:09:25.745Z,6
2018-09-08T09:09:33.510Z,6.3
2018-09-08T09:09:41.313Z,6.9
2018-09-08T09:09:49.068Z,6.6
2018-09-08T09:09:56.811Z,6.7
2018-09-08T09:10:04.622Z,6.6
2018-09-08T09:10:12.496Z,5.9
2018-09-08T09:10:20.273Z,5.5
2018-09-08T09:10:28.073Z,5.1
2018-09-08T09:10:35.900Z,4.8
2018-09-08T09:10:43.758Z,10
2018-09-08T09:10:51.576Z,20.799999
2018-09-08T09:10:59.423Z,20.6
2018-09-08T09:11:07.172Z,20.9
2018-09-08T09:11:14.987Z,15.8
2018-09-08T09:11:22.778Z,4.7
2018-09-08T09:11:30.524Z,4.8
2018-09-08T09:11:38.591Z,4.6
2018-09-08T09:11:46.497Z,4.6
2018-09-08T09:11:54.339Z,5.2
2018-09-08T09:12:01.634Z,5.7
2018-09-08T09:12:09.436Z,5.8
2018-09-08T09:12:17.219Z,6.4
2018-09-08T09:12:25.074Z,6.2
2018-09-08T09:12:33.239Z,6.2
2018-09-08T09:12:40.718Z,6.8
2018-09-08T09:12:48.621Z,6.7
2018-09-08T09:12:56.446Z,6.8
2018-09-08T09:13:04.307Z,7.4
2018-09-08T09:13:12.013Z,7
2018-09-08T09:13:20.027Z,7.1
2018-09-08T09:13:27.855Z,7.1
2018-09-08T09:13:36.383Z,6.3
2018-09-08T09:13:44.094Z,6.2
2018-09-08T09:13:51.924Z,6.2
2018-09-08T09:13:59.771Z,6.2
2018-09-08T09:14:07.552Z,6.1
2018-09-08T09:14:15.469Z,6
2018-09-08T09:14:23.291Z,5.9
2018-09-08T09:14:31.062Z,6.1
2018-09-08T09:14:39.213Z,6.1
2018-09-08T09:14:46.699Z,6.2
2018-09-08T09:14:54.555Z,5.6
2018-09-08T09:15:02.767Z,5.1
2018-09-08T09:15:10.571Z,4.8
2018-09-08T09:17:07.332Z,5
2018-09-08T09:17:15.131Z,10.9
2018-09-08T09:17:23.037Z,10
2018-09-08T09:17:30.852Z,7.5
2018-09-08T09:17:38.804Z,7
2018-09-08T09:17:46.653Z,6.3
2018-09-08T09:17:54.537Z,5.6
2018-09-08T09:18:02.430Z,6.8
2018-09-08T09:18:10.259Z,6.3
2018-09-08T09:18:18.305Z,6.2
2018-09-08T09:18:25.972Z,6
2018-09-08T09:18:34.383Z,5.2
2018-09-08T09:18:42.119Z,5.9
2018-09-08T09:18:49.941Z,6.2
2018-09-08T09:18:57.844Z,8.6
2018-09-08T09:19:05.231Z,8.4
2018-09-08T09:19:13.071Z,7.9
2018-09-08T09:19:20.999Z,8.3
2018-09-08T09:19:28.871Z,6
2018-09-08T09:19:36.821Z,5.9
2018-09-08T09:19:44.595Z,5.5
2018-09-08T09:19:52.361Z,5
2018-09-08T09:20:00.249Z,4.5
2018-09-08T09:20:08.005Z,4.6
2018-09-08T09:20:15.815Z,5
2018-09-08T09:20:23.688Z,5.4
2018-09-08T09:20:31.487Z,5.5
2018-09-08T09:20:39.359Z,6
2018-09-08T09:20:47.123Z,5.7
2018-09-08T09:20:54.886Z,5.6
2018-09-08T09:21:02.751Z,5.4
2018-09-08T09:21:10.593Z,5.5
2018-09-08T09:21:18.399Z,6
2018-09-08T09:21:26.178Z,5.9
2018-09-08T09:21:33.921Z,6.5
2018-09-08T09:21:41.683Z,5.9
2018-09-08T09:21:49.446Z,5.4
2018-09-08T09:21:57.214Z,5.5
2018-09-08T09:22:04.999Z,5.2
2018-09-08T09:22:12.744Z,6.4
2018-09-08T09:22:20.495Z,6.8
2018-09-08T09:22:28.242Z,7.8
2018-09-08T09:22:36.054Z,8
2018-09-08T09:22:43.835Z,9.8
2018-09-08T09:22:51.697Z,9.7
2018-09-08T09:22:59.494Z,34.900002
2018-09-08T09:23:07.290Z,47.5
2018-09-08T09:23:15.155Z,51.900002
2018-09-08T09:23:23.260Z,52.400002
2018-09-08T09:23:30.592Z,25.799999
2018-09-08T09:23:38.339Z,12.3
2018-09-08T09:23:46.104Z,5.7
2018-09-08T09:23:54.016Z,5.1
2018-09-08T09:24:01.831Z,5.1
2018-09-08T09:24:09.563Z,5.2
2018-09-08T09:24:17.715Z,5.1
2018-09-08T09:24:25.655Z,5.2
2018-09-08T09:24:33.268Z,5.1
2018-09-08T09:24:41.197Z,5.1
2018-09-08T09:24:49.116Z,5.8
2018-09-08T09:24:56.320Z,6
2018-09-08T09:25:04.274Z,6.4
2018-09-08T09:25:11.897Z,6.2
2018-09-08T09:25:19.679Z,5.6
2018-09-08T09:25:27.518Z,5.3
2018-09-08T09:25:35.338Z,6.1
2018-09-08T09:25:43.124Z,8.6
2018-09-08T09:25:51.039Z,9.4
2018-09-08T09:25:58.827Z,9.3
2018-09-08T09:26:06.533Z,8.5
2018-09-08T09:26:14.321Z,5.9
2018-09-08T09:26:22.060Z,4.9
2018-09-08T09:26:29.830Z,4.9
2018-09-08T09:26:37.838Z,4.7
2018-09-08T09:26:46.454Z,4.7
2018-09-08T09:26:53.289Z,4.5
2018-09-08T09:27:00.975Z,4.9
2018-09-08T09:27:08.726Z,4.8
2018-09-08T09:27:16.538Z,5
2018-09-08T09:27:24.405Z,5
2018-09-08T09:27:32.192Z,4.7
2018-09-08T09:27:39.989Z,4.7
2018-09-08T09:27:47.791Z,4.7
2018-09-08T09:27:55.590Z,4.6
2018-09-08T09:28:03.428Z,4.5
2018-09-08T09:28:11.288Z,4.4
2018-09-08T09:28:19.133Z,3.8
2018-09-08T09:28:26.993Z,3.6
2018-09-08T09:28:34.705Z,3.6
2018-09-08T09:28:42.527Z,3.6
2018-09-08T09:28:50.372Z,3.9
2018-09-08T09:28:58.157Z,4.1
2018-09-08T09:29:06.015Z,4.2
2018-09-08T09:29:13.834Z,4.8
2018-09-08T09:29:21.691Z,8.6
2018-09-08T09:29:29.529Z,8.9
2018-09-08T09:29:37.311Z,8.7
2018-09-08T09:29:45.209Z,7.9
2018-09-08T09:29:53.023Z,3.7
2018-09-08T09:30:00.787Z,3.6
2018-09-08T09:30:08.603Z,3.9
2018-09-08T09:30:16.339Z,3.9
2018-09-08T09:30:24.143Z,4
2018-09-08T09:30:31.965Z,4
2018-09-08T09:30:39.721Z,4.1
2018-09-08T09:30:47.535Z,4.5
2018-09-08T09:30:56.313Z,6
2018-09-08T09:31:04.127Z,6.5
2018-09-08T09:31:11.924Z,8.7
2018-09-08T09:31:19.714Z,10.6
2018-09-08T09:31:27.555Z,9.9
2018-09-08T09:31:35.391Z,9.3
2018-09-08T09:31:43.291Z,6.6
2018-09-08T09:31:51.102Z,4.7
2018-09-08T09:31:58.914Z,3.7
2018-09-08T09:32:06.701Z,3.9
2018-09-08T09:32:14.505Z,4.2
2018-09-08T09:32:22.323Z,4.1
2018-09-08T09:32:30.114Z,4
2018-09-08T09:32:37.948Z,3.8
2018-09-08T09:32:45.767Z,3.6
2018-09-08T09:32:53.600Z,3.6
2018-09-08T09:33:01.401Z,3.6
2018-09-08T09:33:09.194Z,3.5
2018-09-08T09:33:17.014Z,3.8
2018-09-08T09:33:24.819Z,3.7
2018-09-08T09:33:32.661Z,3.9
2018-09-08T09:33:40.492Z,3.8
2018-09-08T09:33:48.295Z,3.7
2018-09-08T09:33:56.114Z,3.7
2018-09-08T09:34:03.942Z,3.6
2018-09-08T09:34:11.759Z,3.7
2018-09-08T09:34:19.581Z,3.9
2018-09-08T09:34:27.381Z,4
2018-09-08T09:34:35.210Z,4.4
2018-09-08T09:34:43.005Z,4.8
2018-09-08T09:34:50.870Z,4.9
2018-09-08T09:34:58.724Z,5
2018-09-08T09:35:07.524Z,4.6
2018-09-08T09:35:15.356Z,3.9
2018-09-08T09:35:23.209Z,3.9
2018-09-08T09:35:31.036Z,3.7
2018-09-08T09:35:38.858Z,3.7
2018-09-08T09:35:47.717Z,3.8
2018-09-08T09:35:55.577Z,3.7
2018-09-08T09:36:03.459Z,3.8
2018-09-08T09:36:11.320Z,3.8
2018-09-08T09:36:19.187Z,3.9
2018-09-08T09:36:27.048Z,4.2
2018-09-08T09:36:34.889Z,4.2
2018-09-08T09:36:42.736Z,4.4
2018-09-08T09:36:50.591Z,4.5
2018-09-08T09:36:58.429Z,4.2
2018-09-08T09:37:06.245Z,4.2
2018-09-08T09:37:14.101Z,4.3
2018-09-08T09:37:21.973Z,4.2
2018-09-08T09:37:29.867Z,4.3
2018-09-08T09:37:38.593Z,4.3
2018-09-08T09:37:46.435Z,4.1
2018-09-08T09:37:54.263Z,4.3
2018-09-08T09:38:03.093Z,4.3
2018-09-08T09:38:10.943Z,4.4
2018-09-08T09:38:18.784Z,4.1
2018-09-08T09:38:27.718Z,4.2
2018-09-08T09:38:35.563Z,4
2018-09-08T09:38:43.439Z,3.9
2018-09-08T09:38:52.282Z,4
2018-09-08T09:39:00.108Z,3.9
2018-09-08T09:39:07.963Z,4.2
2018-09-08T09:39:16.772Z,5.2
2018-09-08T09:39:24.596Z,5.7
2018-09-08T09:39:32.407Z,6.2
2018-09-08T09:39:40.202Z,6
2018-09-08T09:39:47.981Z,5.5
2018-09-08T09:39:56.782Z,5.2
2018-09-08T09:40:04.555Z,4.8
2018-09-08T09:40:12.331Z,5.3
2018-09-08T09:40:20.083Z,4.8
2018-09-08T09:40:27.869Z,4.8
2018-09-08T09:40:35.645Z,4.2
2018-09-08T09:40:43.426Z,4.1
2018-09-08T09:40:51.261Z,3.9
2018-09-08T09:40:59.038Z,4
2018-09-08T09:41:06.838Z,3.7
2018-09-08T09:41:14.609Z,3.7
2018-09-08T09:41:22.357Z,3.6
2018-09-08T09:41:30.106Z,3.5
2018-09-08T09:41:37.918Z,3.5
2018-09-08T09:41:45.709Z,3.5
2018-09-08T09:41:53.599Z,3.8
2018-09-08T09:42:01.406Z,3.8
2018-09-08T09:42:09.233Z,3.9
2018-09-08T09:42:17.053Z,4
2018-09-08T09:42:24.866Z,3.9
2018-09-08T09:42:32.679Z,4.1
2018-09-08T09:42:40.464Z,4
2018-09-08T09:42:48.212Z,3.9
2018-09-08T09:42:56.040Z,4.1
2018-09-08T09:43:03.788Z,4.1
2018-09-08T09:43:11.587Z,4
